Time;durP1;ratioP1;P1;durP2;ratioP2;P2;SDS_P1;SDS_P2;PMS_P1;PMS_P2;Temp;Humidity;BMP_temperature;BMP_pressure;BME280_temperature;BME280_humidity;BME280_pressure;Samples;Min_cycle;Max_cycle;Signal;HPM_P1;HPM_P2
2022/11/23 00:02:08;;;;;;;5.35;1.88;;;;;;;;;;4992151;28;20054;-62
2022/11/23 00:04:38;;;;;;;3.88;1.65;;;;;;;;;;5000740;28;20062;-63
2022/11/23 00:07:08;;;;;;;3.70;1.67;;;;;;;;;;5011493;28;20057;-63
2022/11/23 00:09:38;;;;;;;3.67;1.98;;;;;;;;;;5011358;28;20045;-63
2022/11/23 00:12:08;;;;;;;4.35;1.70;;;;;;;;;;4994293;28;20486;-62
2022/11/23 00:14:38;;;;;;;4.65;1.83;;;;;;;;;;4987399;28;20740;-63
2022/11/23 00:17:08;;;;;;;3.50;1.70;;;;;;;;;;5025186;28;20055;-63
2022/11/23 00:19:39;;;;;;;4.18;2.40;;;;;;;;;;5030615;28;20053;-63
2022/11/23 00:22:09;;;;;;;2.88;1.50;;;;;;;;;;5027197;28;20065;-62
2022/11/23 00:24:39;;;;;;;4.72;2.00;;;;;;;;;;5030990;28;20061;-63
2022/11/23 00:27:09;;;;;;;3.67;1.50;;;;;;;;;;5030775;28;20046;-62
2022/11/23 00:29:40;;;;;;;3.22;1.55;;;;;;;;;;5030852;28;20060;-63
2022/11/23 00:32:10;;;;;;;2.60;1.67;;;;;;;;;;5010856;28;20046;-63
2022/11/23 00:34:41;;;;;;;2.55;1.42;;;;;;;;;;5011137;28;20529;-62
2022/11/23 00:37:11;;;;;;;2.53;1.70;;;;;;;;;;5010908;28;20058;-62
2022/11/23 00:39:43;;;;;;;4.45;1.88;;;;;;;;;;5010303;28;20569;-63
2022/11/23 00:42:12;;;;;;;5.07;2.80;;;;;;;;;;4990831;28;20061;-62
2022/11/23 00:44:44;;;;;;;2.95;1.88;;;;;;;;;;4958890;28;20055;-62
2022/11/23 00:47:14;;;;;;;3.72;1.60;;;;;;;;;;5010509;28;20060;-62
2022/11/23 00:49:44;;;;;;;3.80;1.90;;;;;;;;;;5009479;28;20061;-63
2022/11/23 00:52:18;;;;;;;3.60;1.75;;;;;;;;;;4955726;28;20191;-63
2022/11/23 00:54:49;;;;;;;3.38;2.05;;;;;;;;;;4952155;29;20431;-62
2022/11/23 00:57:19;;;;;;;5.00;1.70;;;;;;;;;;4962075;28;20067;-63
2022/11/23 00:59:49;;;;;;;4.30;1.50;;;;;;;;;;4971497;28;20050;-62
2022/11/23 01:02:19;;;;;;;3.20;1.70;;;;;;;;;;4929502;29;20056;-62
2022/11/23 01:04:50;;;;;;;3.33;1.50;;;;;;;;;;4894762;29;20057;-62
2022/11/23 01:07:21;;;;;;;3.78;2.22;;;;;;;;;;4895169;29;20378;-63
2022/11/23 01:09:52;;;;;;;3.13;1.85;;;;;;;;;;4870338;29;20529;-63
2022/11/23 01:12:22;;;;;;;4.13;1.50;;;;;;;;;;4875650;29;20061;-62
2022/11/23 01:14:53;;;;;;;2.92;1.52;;;;;;;;;;4857745;29;20122;-63
2022/11/23 01:17:23;;;;;;;3.90;1.80;;;;;;;;;;4857572;29;20061;-62
2022/11/23 01:19:54;;;;;;;2.38;1.25;;;;;;;;;;4836387;29;20053;-62
2022/11/23 01:22:24;;;;;;;3.42;1.52;;;;;;;;;;4876244;29;20075;-62
2022/11/23 01:24:54;;;;;;;2.85;1.40;;;;;;;;;;4876097;29;20073;-62
2022/11/23 01:27:23;;;;;;;2.83;1.67;;;;;;;;;;4826818;29;20045;-61
2022/11/23 01:29:54;;;;;;;4.80;1.52;;;;;;;;;;4860504;29;20061;-63
2022/11/23 01:32:24;;;;;;;4.68;2.30;;;;;;;;;;4894502;29;20441;-64
2022/11/23 01:34:54;;;;;;;3.05;1.70;;;;;;;;;;4894986;29;20076;-62
2022/11/23 01:37:24;;;;;;;2.30;1.40;;;;;;;;;;4885767;29;20053;-63
2022/11/23 01:39:54;;;;;;;3.03;1.30;;;;;;;;;;4884574;29;20502;-63
2022/11/23 01:43:03;;;;;;;3.17;1.50;;;;;;;;;;4916733;29;20055;-62
2022/11/23 01:45:39;;;;;;;3.00;1.60;;;;;;;;;;4932134;29;20063;-62
2022/11/23 01:48:26;;;;;;;3.03;1.50;;;;;;;;;;4918019;29;20056;-63
2022/11/23 01:51:00;;;;;;;3.30;1.55;;;;;;;;;;4912359;29;20060;-63
2022/11/23 01:53:32;;;;;;;3.92;1.80;;;;;;;;;;4912846;29;20048;-63
2022/11/23 01:56:07;;;;;;;3.17;1.83;;;;;;;;;;4912916;29;20444;-63
2022/11/23 01:58:44;;;;;;;3.00;1.88;;;;;;;;;;4897620;29;20059;-63
2022/11/23 02:01:14;;;;;;;3.70;1.80;;;;;;;;;;4913009;29;20508;-63
2022/11/23 02:03:48;;;;;;;5.88;1.88;;;;;;;;;;4950812;29;20526;-63
2022/11/23 02:06:19;;;;;;;2.60;1.50;;;;;;;;;;4970682;28;20066;-62
2022/11/23 02:08:51;;;;;;;4.93;2.10;;;;;;;;;;4970521;28;20478;-62
2022/11/23 02:11:21;;;;;;;3.45;1.60;;;;;;;;;;4931718;29;20070;-62
2022/11/23 02:13:52;;;;;;;2.60;1.63;;;;;;;;;;4896836;29;20500;-62
2022/11/23 02:16:23;;;;;;;3.17;1.52;;;;;;;;;;4913013;29;20056;-62
2022/11/23 02:18:54;;;;;;;3.13;1.67;;;;;;;;;;4913193;29;20170;-63
2022/11/23 02:21:25;;;;;;;5.63;1.60;;;;;;;;;;4911966;29;20057;-62
2022/11/23 02:24:01;;;;;;;3.45;1.63;;;;;;;;;;4912775;29;20048;-62
2022/11/23 02:26:34;;;;;;;3.83;1.75;;;;;;;;;;4912851;29;20086;-62
2022/11/23 02:29:36;;;;;;;3.35;1.80;;;;;;;;;;4913127;29;20123;-63
2022/11/23 02:32:07;;;;;;;3.85;1.63;;;;;;;;;;4854765;29;20046;-63
2022/11/23 02:34:37;;;;;;;3.20;1.80;;;;;;;;;;4853597;29;20062;-62
2022/11/23 02:37:08;;;;;;;3.85;1.80;;;;;;;;;;4859886;29;20053;-62
2022/11/23 02:39:44;;;;;;;3.70;1.92;;;;;;;;;;4856759;29;20106;-63
2022/11/23 02:42:14;;;;;;;4.80;1.77;;;;;;;;;;4856530;29;20054;-63
2022/11/23 02:45:17;;;;;;;5.00;2.55;;;;;;;;;;4856563;29;20457;-63
2022/11/23 02:47:48;;;;;;;5.72;1.92;;;;;;;;;;4811026;29;20525;-63
2022/11/23 02:50:18;;;;;;;4.22;2.67;;;;;;;;;;4875362;29;20394;-63
2022/11/23 02:52:48;;;;;;;3.67;1.75;;;;;;;;;;4875018;29;20053;-63
2022/11/23 02:55:18;;;;;;;5.82;2.63;;;;;;;;;;4874963;29;20053;-63
2022/11/23 02:57:48;;;;;;;8.55;2.20;;;;;;;;;;4859718;29;20049;-63
2022/11/23 03:00:19;;;;;;;3.35;1.60;;;;;;;;;;4874908;29;20056;-63
2022/11/23 03:02:49;;;;;;;3.22;1.92;;;;;;;;;;4913328;29;20532;-63
2022/11/23 03:05:20;;;;;;;4.00;2.13;;;;;;;;;;4896787;29;20052;-63
2022/11/23 03:07:51;;;;;;;;;;;;;;;;;;4887882;29;20465;-63
2022/11/23 03:10:22;;;;;;;3.35;1.65;;;;;;;;;;4865617;29;20380;-63
2022/11/23 03:12:55;;;;;;;5.47;2.30;;;;;;;;;;4877775;29;20437;-62
2022/11/23 03:15:28;;;;;;;4.72;2.33;;;;;;;;;;4848444;29;20411;-63
2022/11/23 03:17:59;;;;;;;3.80;2.17;;;;;;;;;;4859535;29;20057;-63
2022/11/23 03:20:30;;;;;;;3.35;1.92;;;;;;;;;;4891543;29;20080;-63
2022/11/23 03:23:01;;;;;;;5.10;2.17;;;;;;;;;;4915145;29;20051;-62
2022/11/23 03:25:31;;;;;;;4.30;2.50;;;;;;;;;;4934075;29;20389;-62
2022/11/23 03:28:03;;;;;;;;;;;;;;;;;;4934613;29;20051;-62
2022/11/23 03:30:34;;;;;;;5.28;1.77;;;;;;;;;;4905221;29;20399;-63
2022/11/23 03:33:06;;;;;;;6.18;2.03;;;;;;;;;;4904865;29;20056;-63
2022/11/23 03:35:37;;;;;;;4.90;2.08;;;;;;;;;;4886317;29;20069;-63
2022/11/23 03:38:30;;;;;;;4.18;2.15;;;;;;;;;;4883606;29;20045;-63
2022/11/23 03:41:01;;;;;;;6.07;2.33;;;;;;;;;;4877486;29;20045;-63
2022/11/23 03:43:48;;;;;;;3.90;2.00;;;;;;;;;;4849019;29;20053;-62
2022/11/23 03:46:19;;;;;;;5.50;2.38;;;;;;;;;;4840549;29;20046;-63
2022/11/23 03:48:49;;;;;;;4.22;2.08;;;;;;;;;;4837368;29;20066;-63
2022/11/23 03:51:19;;;;;;;2.55;1.80;;;;;;;;;;4792539;29;20058;-63
2022/11/23 03:53:49;;;;;;;4.28;2.10;;;;;;;;;;4854520;29;20057;-64
2022/11/23 03:56:19;;;;;;;5.38;2.35;;;;;;;;;;4858736;29;20060;-63
2022/11/23 03:58:50;;;;;;;3.70;2.20;;;;;;;;;;4858423;29;20054;-63
2022/11/23 04:01:20;;;;;;;5.25;2.30;;;;;;;;;;4812338;29;20054;-63
2022/11/23 04:04:01;;;;;;;4.57;2.28;;;;;;;;;;4854288;29;20070;-62
2022/11/23 04:06:59;;;;;;;5.38;1.85;;;;;;;;;;4803890;29;20086;-62
2022/11/23 04:09:33;;;;;;;4.00;2.00;;;;;;;;;;4803182;29;20057;-62
2022/11/23 04:12:04;;;;;;;5.30;1.88;;;;;;;;;;4784963;29;20055;-62
2022/11/23 04:14:36;;;;;;;4.68;2.20;;;;;;;;;;4795133;29;20468;-62
2022/11/23 04:17:07;;;;;;;4.25;2.22;;;;;;;;;;4802924;29;20046;-62
2022/11/23 04:19:38;;;;;;;4.72;2.05;;;;;;;;;;4802970;29;20460;-61
2022/11/23 04:22:09;;;;;;;4.05;2.03;;;;;;;;;;4819017;29;20061;-61
2022/11/23 04:24:42;;;;;;;5.18;2.40;;;;;;;;;;4838018;29;20072;-63
2022/11/23 04:27:13;;;;;;;6.65;1.98;;;;;;;;;;4848090;29;20088;-62
2022/11/23 04:29:43;;;;;;;5.18;2.15;;;;;;;;;;4845161;29;20050;-62
2022/11/23 04:32:13;;;;;;;3.53;1.83;;;;;;;;;;4847906;29;20058;-61
2022/11/23 04:34:44;;;;;;;11.88;2.50;;;;;;;;;;4819538;29;20061;-61
2022/11/23 04:37:16;;;;;;;3.25;1.85;;;;;;;;;;4842223;29;20054;-62
2022/11/23 04:39:46;;;;;;;5.95;2.50;;;;;;;;;;4834365;29;20050;-64
2022/11/23 04:42:16;;;;;;;7.13;2.97;;;;;;;;;;4837129;29;20601;-62
2022/11/23 04:44:56;;;;;;;8.80;2.47;;;;;;;;;;4810704;29;20058;-62
2022/11/23 04:47:27;;;;;;;4.32;2.38;;;;;;;;;;4832033;29;20054;-65
2022/11/23 04:50:01;;;;;;;4.43;2.35;;;;;;;;;;4857185;29;20498;-62
2022/11/23 04:52:31;;;;;;;6.45;2.72;;;;;;;;;;4827979;29;20046;-63
2022/11/23 04:55:02;;;;;;;5.32;2.50;;;;;;;;;;4819086;29;20059;-63
2022/11/23 04:57:34;;;;;;;;;;;;;;;;;;4842240;29;20057;-63
2022/11/23 05:00:05;;;;;;;4.95;2.53;;;;;;;;;;4820034;29;19924;-63
2022/11/23 05:02:37;;;;;;;3.95;2.30;;;;;;;;;;4878459;29;20056;-64
2022/11/23 05:05:26;;;;;;;5.70;2.72;;;;;;;;;;4880675;29;20068;-63
2022/11/23 05:07:58;;;;;;;4.95;2.42;;;;;;;;;;4846636;29;20045;-63
2022/11/23 05:10:41;;;;;;;5.68;2.35;;;;;;;;;;4809017;29;20100;-61
2022/11/23 05:13:12;;;;;;;6.75;2.70;;;;;;;;;;4801277;29;20051;-63
2022/11/23 05:15:43;;;;;;;5.50;2.40;;;;;;;;;;4807455;29;20053;-63
2022/11/23 05:18:17;;;;;;;4.95;2.45;;;;;;;;;;4805011;29;20070;-61
2022/11/23 05:20:50;;;;;;;4.90;2.22;;;;;;;;;;4816970;29;20066;-63
2022/11/23 05:23:21;;;;;;;8.05;2.20;;;;;;;;;;4820473;29;20545;-63
2022/11/23 05:25:53;;;;;;;;;;;;;;;;;;4824159;29;20058;-63
2022/11/23 05:28:24;;;;;;;4.45;2.30;;;;;;;;;;4791055;29;19925;-63
2022/11/23 05:31:14;;;;;;;3.92;2.08;;;;;;;;;;4855688;29;20056;-63
2022/11/23 05:33:46;;;;;;;7.18;2.35;;;;;;;;;;4884065;29;20058;-61
2022/11/23 05:36:23;;;;;;;4.65;2.38;;;;;;;;;;4893920;29;20060;-63
2022/11/23 05:38:54;;;;;;;5.60;2.42;;;;;;;;;;4894416;29;20060;-64
2022/11/23 05:41:30;;;;;;;5.45;2.60;;;;;;;;;;4856967;29;20544;-61
2022/11/23 05:44:02;;;;;;;5.15;2.70;;;;;;;;;;4875425;29;20067;-62
2022/11/23 05:46:33;;;;;;;5.32;2.35;;;;;;;;;;4875225;29;20064;-62
2022/11/23 05:49:03;;;;;;;4.47;2.47;;;;;;;;;;4842139;29;20050;-62
2022/11/23 05:51:38;;;;;;;6.10;2.28;;;;;;;;;;4838118;29;20054;-62
2022/11/23 05:54:09;;;;;;;4.43;2.22;;;;;;;;;;4838414;29;20054;-61
2022/11/23 05:56:43;;;;;;;6.95;2.40;;;;;;;;;;4871517;29;20057;-62
2022/11/23 05:59:20;;;;;;;4.05;2.28;;;;;;;;;;4810697;29;20063;-63
2022/11/23 06:01:57;;;;;;;4.03;2.17;;;;;;;;;;4840395;29;20054;-63
2022/11/23 06:04:31;;;;;;;3.88;1.90;;;;;;;;;;4824453;29;20062;-64
2022/11/23 06:07:01;;;;;;;4.05;2.10;;;;;;;;;;4804424;29;20055;-63
2022/11/23 06:09:44;;;;;;;4.43;2.33;;;;;;;;;;4854764;29;20057;-63
2022/11/23 06:12:15;;;;;;;5.93;2.28;;;;;;;;;;4856439;29;20061;-63
2022/11/23 06:14:45;;;;;;;4.28;2.35;;;;;;;;;;4859474;29;20103;-63
2022/11/23 06:17:17;;;;;;;4.38;2.38;;;;;;;;;;4875030;29;20421;-63
2022/11/23 06:19:51;;;;;;;4.10;2.20;;;;;;;;;;4842394;29;20061;-63
2022/11/23 06:22:21;;;;;;;5.35;3.05;;;;;;;;;;4875025;29;20582;-63
2022/11/23 06:25:04;;;;;;;4.78;2.35;;;;;;;;;;4844155;29;20057;-63
2022/11/23 06:27:57;;;;;;;6.07;2.05;;;;;;;;;;4812679;29;20085;-63
2022/11/23 06:30:35;;;;;;;4.03;2.40;;;;;;;;;;4857070;29;20433;-63
2022/11/23 06:33:07;;;;;;;6.20;2.45;;;;;;;;;;4844799;29;20049;-63
2022/11/23 06:35:55;;;;;;;3.50;1.98;;;;;;;;;;4823594;29;20053;-63
2022/11/23 06:38:30;;;;;;;3.70;1.92;;;;;;;;;;4838543;29;20061;-63
2022/11/23 06:41:20;;;;;;;4.80;2.30;;;;;;;;;;4841412;29;20054;-63
2022/11/23 06:43:56;;;;;;;4.88;1.90;;;;;;;;;;4836967;29;20070;-62
2022/11/23 06:46:38;;;;;;;5.25;2.20;;;;;;;;;;4837488;29;20070;-63
2022/11/23 06:49:09;;;;;;;4.03;2.00;;;;;;;;;;4856332;29;20565;-63
2022/11/23 06:51:41;;;;;;;3.35;1.98;;;;;;;;;;4822778;29;20073;-64
2022/11/23 06:54:12;;;;;;;6.45;2.28;;;;;;;;;;4811005;29;20130;-63
2022/11/23 06:56:42;;;;;;;3.30;1.77;;;;;;;;;;4835317;29;20061;-63
2022/11/23 06:59:12;;;;;;;4.47;2.00;;;;;;;;;;4846911;29;20053;-63
2022/11/23 07:01:43;;;;;;;5.32;2.42;;;;;;;;;;4878019;29;20510;-63
2022/11/23 07:04:14;;;;;;;5.85;2.05;;;;;;;;;;4896476;29;20065;-63
2022/11/23 07:06:49;;;;;;;3.05;1.80;;;;;;;;;;4859316;29;20049;-64
2022/11/23 07:09:29;;;;;;;7.32;2.05;;;;;;;;;;4840711;29;20190;-63
2022/11/23 07:12:20;;;;;;;3.42;2.28;;;;;;;;;;4862312;29;20388;-63
2022/11/23 07:14:50;;;;;;;4.65;2.15;;;;;;;;;;4877882;29;20057;-63
2022/11/23 07:17:21;;;;;;;2.97;1.52;;;;;;;;;;4802790;29;20051;-64
2022/11/23 07:19:52;;;;;;;4.45;2.08;;;;;;;;;;4804489;29;20420;-63
2022/11/23 07:22:23;;;;;;;3.53;1.55;;;;;;;;;;4822124;29;20503;-64
2022/11/23 07:24:53;;;;;;;2.78;1.50;;;;;;;;;;4840781;29;20050;-63
2022/11/23 07:27:23;;;;;;;3.22;1.58;;;;;;;;;;4840603;29;20060;-63
2022/11/23 07:29:53;;;;;;;3.85;1.70;;;;;;;;;;4809528;29;20058;-63
2022/11/23 07:32:23;;;;;;;2.92;1.60;;;;;;;;;;4822179;29;20203;-63
2022/11/23 07:34:54;;;;;;;2.30;1.35;;;;;;;;;;4829298;29;20081;-63
2022/11/23 07:37:26;;;;;;;3.50;1.77;;;;;;;;;;4835234;29;20050;-63
2022/11/23 07:39:57;;;;;;;2.05;1.20;;;;;;;;;;4827226;29;20062;-63
2022/11/23 07:42:30;;;;;;;6.20;1.52;;;;;;;;;;4823926;29;20542;-63
2022/11/23 07:45:08;;;;;;;3.53;1.27;;;;;;;;;;4845357;29;20066;-63
2022/11/23 07:47:40;;;;;;;7.80;1.70;;;;;;;;;;4840213;29;20256;-63
2022/11/23 07:50:12;;;;;;;2.30;1.23;;;;;;;;;;4827553;29;20063;-63
2022/11/23 07:52:42;;;;;;;3.20;1.30;;;;;;;;;;4818408;29;20507;-64
2022/11/23 07:55:12;;;;;;;2.38;1.40;;;;;;;;;;4796531;29;20081;-63
2022/11/23 07:57:42;;;;;;;4.03;1.67;;;;;;;;;;4842263;29;20053;-64
2022/11/23 08:00:12;;;;;;;3.38;1.52;;;;;;;;;;4859080;29;20073;-63
2022/11/23 08:02:43;;;;;;;2.40;1.27;;;;;;;;;;4828284;29;20573;-63
2022/11/23 08:05:34;;;;;;;2.72;1.52;;;;;;;;;;4873968;29;20061;-64
2022/11/23 08:08:05;;;;;;;3.22;1.30;;;;;;;;;;4872400;29;20072;-63
2022/11/23 08:10:35;;;;;;;4.18;1.45;;;;;;;;;;4880150;29;20060;-63
2022/11/23 08:13:13;;;;;;;2.72;1.52;;;;;;;;;;4909887;29;20064;-63
2022/11/23 08:15:43;;;;;;;2.55;1.30;;;;;;;;;;4900494;29;20165;-63
2022/11/23 08:18:23;;;;;;;2.85;1.50;;;;;;;;;;4895500;29;20048;-63
2022/11/23 08:20:53;;;;;;;4.65;1.40;;;;;;;;;;4895202;29;20083;-63
2022/11/23 08:23:24;;;;;;;3.05;1.52;;;;;;;;;;4914783;29;20064;-63
2022/11/23 08:25:55;;;;;;;2.40;1.10;;;;;;;;;;4943288;29;20055;-63
2022/11/23 08:28:25;;;;;;;4.22;1.77;;;;;;;;;;4952998;28;20063;-64
2022/11/23 08:30:55;;;;;;;2.92;1.40;;;;;;;;;;4995501;28;20042;-63
2022/11/23 08:33:27;;;;;;;3.78;1.50;;;;;;;;;;4962238;28;20060;-63
2022/11/23 08:36:04;;;;;;;3.58;1.98;;;;;;;;;;4991656;28;20413;-64
2022/11/23 08:38:34;;;;;;;3.40;1.40;;;;;;;;;;5050333;28;20559;-63
2022/11/23 08:41:05;;;;;;;2.90;1.92;;;;;;;;;;5033789;28;20536;-63
2022/11/23 08:43:36;;;;;;;2.40;1.40;;;;;;;;;;5050357;28;20515;-62
2022/11/23 08:46:06;;;;;;;3.17;1.52;;;;;;;;;;5050449;28;20045;-63
2022/11/23 08:48:39;;;;;;;4.63;1.52;;;;;;;;;;5050176;28;20061;-62
2022/11/23 08:51:10;;;;;;;4.55;1.30;;;;;;;;;;5050251;28;20531;-63
2022/11/23 08:53:40;;;;;;;6.63;2.30;;;;;;;;;;5049072;28;20056;-63
2022/11/23 08:56:11;;;;;;;3.53;1.63;;;;;;;;;;5028343;28;20079;-63
2022/11/23 08:58:41;;;;;;;2.75;1.25;;;;;;;;;;5070423;28;20064;-63
2022/11/23 09:01:13;;;;;;;2.88;1.42;;;;;;;;;;5029549;28;20049;-63
2022/11/23 09:03:45;;;;;;;3.70;1.30;;;;;;;;;;5029860;28;20052;-63
2022/11/23 09:06:15;;;;;;;3.10;1.70;;;;;;;;;;4981044;28;20111;-63
2022/11/23 09:08:45;;;;;;;3.72;1.73;;;;;;;;;;5010112;28;20513;-63
2022/11/23 09:11:17;;;;;;;3.60;1.42;;;;;;;;;;5010196;28;20062;-63
2022/11/23 09:13:49;;;;;;;3.08;1.58;;;;;;;;;;4994340;28;20053;-63
2022/11/23 09:16:19;;;;;;;4.25;1.58;;;;;;;;;;4971089;28;20054;-63
2022/11/23 09:18:49;;;;;;;4.40;1.67;;;;;;;;;;4970853;28;20058;-63
2022/11/23 09:21:20;;;;;;;5.22;1.60;;;;;;;;;;4971095;28;20058;-64
2022/11/23 09:23:50;;;;;;;3.45;1.60;;;;;;;;;;4954743;28;20058;-63
2022/11/23 09:26:19;;;;;;;6.70;2.60;;;;;;;;;;4938812;28;20631;-63
2022/11/23 09:28:50;;;;;;;3.88;1.98;;;;;;;;;;4970815;28;20061;-63
2022/11/23 09:31:20;;;;;;;3.72;1.83;;;;;;;;;;4965226;28;20061;-63
2022/11/23 09:33:52;;;;;;;4.78;1.50;;;;;;;;;;4990099;28;20058;-63
2022/11/23 09:36:23;;;;;;;8.52;2.25;;;;;;;;;;4974658;28;20049;-63
2022/11/23 09:38:54;;;;;;;3.05;1.50;;;;;;;;;;4994477;28;20054;-63
2022/11/23 09:41:58;;;;;;;3.60;1.70;;;;;;;;;;5029674;28;20064;-63
2022/11/23 09:44:39;;;;;;;6.55;1.75;;;;;;;;;;5029509;28;20390;-63
2022/11/23 09:47:23;;;;;;;4.75;1.88;;;;;;;;;;5061662;28;20523;-63
2022/11/23 09:50:08;;;;;;;5.90;1.60;;;;;;;;;;5052570;28;20052;-63
2022/11/23 09:52:43;;;;;;;6.18;1.83;;;;;;;;;;5069265;28;20044;-63
2022/11/23 09:55:36;;;;;;;3.95;1.88;;;;;;;;;;5049037;28;20496;-64
2022/11/23 09:58:11;;;;;;;4.25;2.03;;;;;;;;;;4922668;28;20062;-64
2022/11/23 10:01:03;;;;;;;3.80;1.73;;;;;;;;;;4907164;28;20054;-63
2022/11/23 10:03:38;;;;;;;3.28;1.30;;;;;;;;;;4931939;29;20052;-63
2022/11/23 10:06:28;;;;;;;3.38;1.67;;;;;;;;;;4932074;29;20520;-63
2022/11/23 10:09:24;;;;;;;5.10;1.80;;;;;;;;;;4931982;29;20056;-63
2022/11/23 10:12:07;;;;;;;2.78;1.63;;;;;;;;;;4932098;29;20547;-63
2022/11/23 10:15:06;;;;;;;3.58;1.52;;;;;;;;;;4936001;29;20060;-64
2022/11/23 10:17:51;;;;;;;3.17;1.30;;;;;;;;;;4897889;29;20060;-63
2022/11/23 10:20:40;;;;;;;3.60;1.33;;;;;;;;;;4898054;29;20198;-63
2022/11/23 10:23:21;;;;;;;4.32;1.40;;;;;;;;;;4897771;29;20059;-64
2022/11/23 10:25:52;;;;;;;2.20;1.20;;;;;;;;;;4897879;29;20060;-64
2022/11/23 10:28:23;;;;;;;4.45;1.30;;;;;;;;;;4897902;29;20064;-63
2022/11/23 10:31:15;;;;;;;4.10;1.52;;;;;;;;;;4897768;29;20053;-63
2022/11/23 10:34:06;;;;;;;2.95;1.23;;;;;;;;;;4930535;29;20052;-63
2022/11/23 10:36:38;;;;;;;3.85;1.27;;;;;;;;;;5032981;28;20049;-64
2022/11/23 10:39:20;;;;;;;4.82;1.40;;;;;;;;;;5032647;28;20049;-63
2022/11/23 10:41:52;;;;;;;2.63;1.20;;;;;;;;;;5063272;28;20060;-63
2022/11/23 10:44:36;;;;;;;3.53;1.20;;;;;;;;;;5072803;28;20049;-64
2022/11/23 10:47:07;;;;;;;4.57;1.42;;;;;;;;;;5020245;28;20056;-65
2022/11/23 10:49:37;;;;;;;3.25;1.48;;;;;;;;;;5050311;28;20195;-63
2022/11/23 10:52:28;;;;;;;5.13;1.67;;;;;;;;;;5055531;28;20145;-63
2022/11/23 10:55:02;;;;;;;4.97;1.25;;;;;;;;;;5080457;28;20068;-63
2022/11/23 10:57:35;;;;;;;2.38;1.50;;;;;;;;;;5095071;28;20040;-63
2022/11/23 11:00:08;;;;;;;2.80;1.15;;;;;;;;;;5111622;28;20047;-63
2022/11/23 11:02:51;;;;;;;2.70;1.40;;;;;;;;;;5048669;28;20047;-64
2022/11/23 11:05:32;;;;;;;4.38;1.85;;;;;;;;;;5045526;28;20403;-62
2022/11/23 11:08:34;;;;;;;2.90;1.75;;;;;;;;;;5098132;28;20391;-62
2022/11/23 11:11:07;;;;;;;2.90;1.83;;;;;;;;;;5105186;28;20534;-63
2022/11/23 11:13:47;;;;;;;2.10;1.08;;;;;;;;;;5103226;28;20052;-63
2022/11/23 11:16:22;;;;;;;3.03;1.17;;;;;;;;;;5073184;28;20075;-63
2022/11/23 11:18:52;;;;;;;2.65;1.58;;;;;;;;;;5083330;28;20131;-63
2022/11/23 11:21:30;;;;;;;3.92;1.48;;;;;;;;;;5039590;28;20067;-63
2022/11/23 11:24:04;;;;;;;2.25;1.27;;;;;;;;;;5037031;28;20052;-63
2022/11/23 11:26:36;;;;;;;2.50;1.13;;;;;;;;;;5085506;28;20049;-63
2022/11/23 11:29:22;;;;;;;2.05;1.33;;;;;;;;;;5080146;28;20066;-63
2022/11/23 11:32:17;;;;;;;3.28;1.45;;;;;;;;;;5073440;28;20093;-63
2022/11/23 11:35:28;;;;;;;2.42;1.25;;;;;;;;;;5077197;28;20063;-63
2022/11/23 11:38:32;;;;;;;1.80;1.00;;;;;;;;;;5013872;28;20053;-63
2022/11/23 11:41:24;;;;;;;3.35;1.20;;;;;;;;;;4963499;28;20061;-64
2022/11/23 11:44:21;;;;;;;1.90;1.02;;;;;;;;;;4955781;28;20055;-63
2022/11/23 11:47:05;;;;;;;3.00;1.50;;;;;;;;;;4924188;29;20044;-64
2022/11/23 11:49:47;;;;;;;3.22;1.55;;;;;;;;;;4910858;29;20056;-64
2022/11/23 11:52:27;;;;;;;5.15;1.50;;;;;;;;;;4930000;29;20060;-64
2022/11/23 11:55:24;;;;;;;3.85;1.20;;;;;;;;;;4919888;29;20566;-62
2022/11/23 11:58:10;;;;;;;2.25;1.10;;;;;;;;;;4887831;29;20071;-61
2022/11/23 12:00:41;;;;;;;1.92;1.10;;;;;;;;;;4897591;29;20052;-62
2022/11/23 12:03:50;;;;;;;2.53;1.30;;;;;;;;;;4886927;29;20059;-62
2022/11/23 12:06:32;;;;;;;4.32;1.05;;;;;;;;;;4857278;29;20077;-64
2022/11/23 12:09:18;;;;;;;2.47;1.20;;;;;;;;;;4855435;29;20065;-64
2022/11/23 12:11:49;;;;;;;3.60;1.30;;;;;;;;;;4843323;29;20566;-62
2022/11/23 12:14:20;;;;;;;5.10;1.80;;;;;;;;;;4758746;29;2353969;-62
2022/11/23 12:17:04;;;;;;;1.77;1.20;;;;;;;;;;4822976;29;20055;-63
2022/11/23 12:20:11;;;;;;;3.85;0.98;;;;;;;;;;4914543;29;20051;-63
2022/11/23 12:22:55;;;;;;;1.70;1.10;;;;;;;;;;4936691;28;20063;-63
2022/11/23 12:25:35;;;;;;;1.70;1.30;;;;;;;;;;4978328;28;20062;-63
2022/11/23 12:28:53;;;;;;;2.42;1.40;;;;;;;;;;5004247;28;20116;-63
2022/11/23 12:32:01;;;;;;;3.30;1.50;;;;;;;;;;4971282;28;20061;-63
2022/11/23 12:34:32;;;;;;;1.85;1.10;;;;;;;;;;4932739;29;20052;-63
2022/11/23 12:37:15;;;;;;;3.30;1.10;;;;;;;;;;4945395;29;20060;-65
2022/11/23 12:40:19;;;;;;;2.28;1.00;;;;;;;;;;4913872;29;20063;-63
2022/11/23 12:42:54;;;;;;;1.92;1.00;;;;;;;;;;4913666;29;20056;-64
2022/11/23 12:46:01;;;;;;;2.30;1.13;;;;;;;;;;4913843;29;20048;-63
2022/11/23 12:48:37;;;;;;;3.35;1.25;;;;;;;;;;4900496;29;20055;-63
2022/11/23 12:51:07;;;;;;;1.70;1.13;;;;;;;;;;4913035;29;20052;-64
2022/11/23 12:53:59;;;;;;;3.33;1.30;;;;;;;;;;4913814;29;20056;-64
2022/11/23 12:56:46;;;;;;;1.58;1.00;;;;;;;;;;4898740;29;20067;-63
2022/11/23 12:59:17;;;;;;;1.77;0.93;;;;;;;;;;4897762;29;20067;-62
2022/11/23 13:01:58;;;;;;;1.63;0.85;;;;;;;;;;4898420;29;20056;-63
2022/11/23 13:04:53;;;;;;;1.90;1.02;;;;;;;;;;4909098;29;20048;-63
2022/11/23 13:07:48;;;;;;;1.95;1.10;;;;;;;;;;4891129;29;20104;-63
2022/11/23 13:10:36;;;;;;;2.47;1.00;;;;;;;;;;4932643;29;20092;-63
2022/11/23 13:13:22;;;;;;;2.10;1.10;;;;;;;;;;4934522;28;20059;-63
2022/11/23 13:16:06;;;;;;;1.45;1.00;;;;;;;;;;4939218;28;20055;-63
2022/11/23 13:19:10;;;;;;;1.92;1.10;;;;;;;;;;4990666;28;20069;-64
2022/11/23 13:21:43;;;;;;;3.28;1.25;;;;;;;;;;4993397;28;20058;-62
2022/11/23 13:24:33;;;;;;;1.90;1.10;;;;;;;;;;5010035;28;20061;-63
2022/11/23 13:27:13;;;;;;;2.08;1.20;;;;;;;;;;4977482;28;20066;-63
2022/11/23 13:29:49;;;;;;;2.65;1.05;;;;;;;;;;5009924;28;20058;-64
2022/11/23 13:32:37;;;;;;;1.73;1.48;;;;;;;;;;5028064;28;20480;-63
2022/11/23 13:35:13;;;;;;;3.20;0.85;;;;;;;;;;5013085;28;20050;-63
2022/11/23 13:37:55;;;;;;;4.18;0.77;;;;;;;;;;5029583;28;20053;-63
2022/11/23 13:40:36;;;;;;;3.28;1.20;;;;;;;;;;4980940;28;20057;-64
2022/11/23 13:43:24;;;;;;;2.65;0.90;;;;;;;;;;5050375;28;20044;-64
2022/11/23 13:46:20;;;;;;;1.02;0.80;;;;;;;;;;5092182;28;20054;-64
2022/11/23 13:48:52;;;;;;;1.33;0.90;;;;;;;;;;5040823;28;20052;-63
2022/11/23 13:51:34;;;;;;;1.65;0.93;;;;;;;;;;5074561;28;20047;-63
2022/11/23 13:54:23;;;;;;;2.58;0.82;;;;;;;;;;5091860;28;20051;-63
2022/11/23 13:57:00;;;;;;;1.10;0.73;;;;;;;;;;5091905;28;20063;-64
2022/11/23 13:59:33;;;;;;;1.50;0.80;;;;;;;;;;5057085;28;20063;-64
2022/11/23 14:02:07;;;;;;;1.77;1.33;;;;;;;;;;5091823;28;20059;-64
2022/11/23 14:04:42;;;;;;;1.35;0.70;;;;;;;;;;5028861;28;20045;-63
2022/11/23 14:07:28;;;;;;;2.97;1.88;;;;;;;;;;5029354;28;20520;-63
2022/11/23 14:10:18;;;;;;;2.25;1.30;;;;;;;;;;5012618;28;20445;-64
2022/11/23 14:12:57;;;;;;;2.55;1.05;;;;;;;;;;4996516;28;20093;-64
2022/11/23 14:15:34;;;;;;;0.90;0.80;;;;;;;;;;5012751;28;20053;-63
2022/11/23 14:18:16;;;;;;;2.45;0.80;;;;;;;;;;4996440;28;20065;-65
2022/11/23 14:20:52;;;;;;;4.68;1.02;;;;;;;;;;5029156;28;20493;-64
2022/11/23 14:23:49;;;;;;;1.00;0.75;;;;;;;;;;5029070;28;20387;-64
2022/11/23 14:26:35;;;;;;;3.05;0.93;;;;;;;;;;5029091;28;20769;-66
2022/11/23 14:29:27;;;;;;;1.75;0.90;;;;;;;;;;5012813;28;20068;-64
2022/11/23 14:32:26;;;;;;;3.50;0.90;;;;;;;;;;4996118;28;20050;-64
2022/11/23 14:35:32;;;;;;;2.75;0.70;;;;;;;;;;4995988;28;20049;-64
2022/11/23 14:38:23;;;;;;;2.30;0.75;;;;;;;;;;5029439;28;20045;-65
2022/11/23 14:41:19;;;;;;;1.00;0.70;;;;;;;;;;4980078;28;20556;-65
2022/11/23 14:43:50;;;;;;;1.42;0.80;;;;;;;;;;5091180;28;20047;-63
2022/11/23 14:46:24;;;;;;;1.10;0.73;;;;;;;;;;5091604;28;20048;-64
2022/11/23 14:49:06;;;;;;;3.60;1.30;;;;;;;;;;5056349;28;20408;-63
2022/11/23 14:51:42;;;;;;;1.83;0.82;;;;;;;;;;5091266;28;20380;-64
2022/11/23 14:54:16;;;;;;;1.20;0.93;;;;;;;;;;5091514;28;20047;-63
2022/11/23 14:56:48;;;;;;;1.23;0.60;;;;;;;;;;5022297;28;20514;-64
2022/11/23 14:59:28;;;;;;;1.35;0.70;;;;;;;;;;5093098;28;20048;-64
2022/11/23 15:02:21;;;;;;;1.73;0.70;;;;;;;;;;5060388;28;20052;-63
2022/11/23 15:05:03;;;;;;;0.80;0.68;;;;;;;;;;5094773;28;20040;-62
2022/11/23 15:08:02;;;;;;;1.83;0.70;;;;;;;;;;5059209;28;20056;-64
2022/11/23 15:10:50;;;;;;;1.38;0.80;;;;;;;;;;4963998;28;20053;-63
2022/11/23 15:13:25;;;;;;;0.77;0.57;;;;;;;;;;4963932;28;20490;-63
2022/11/23 15:15:57;;;;;;;1.50;0.70;;;;;;;;;;5012526;28;20062;-63
2022/11/23 15:18:29;;;;;;;3.42;0.93;;;;;;;;;;5012517;28;20061;-63
2022/11/23 15:21:20;;;;;;;1.63;0.85;;;;;;;;;;4963928;28;20494;-63
2022/11/23 15:23:58;;;;;;;1.92;0.90;;;;;;;;;;4979646;28;20046;-63
2022/11/23 15:26:30;;;;;;;2.63;0.75;;;;;;;;;;4996037;28;20050;-63
2022/11/23 15:29:30;;;;;;;0.70;0.60;;;;;;;;;;4995662;28;20057;-64
2022/11/23 15:32:03;;;;;;;1.50;0.60;;;;;;;;;;5012055;28;20045;-63
2022/11/23 15:34:57;;;;;;;2.55;0.70;;;;;;;;;;5012216;28;20061;-63
2022/11/23 15:37:28;;;;;;;0.85;0.60;;;;;;;;;;5012018;28;20049;-62
2022/11/23 15:39:59;;;;;;;0.77;0.60;;;;;;;;;;5011946;28;20049;-63
2022/11/23 15:42:29;;;;;;;3.00;0.60;;;;;;;;;;5011917;28;20541;-63